Time,TemperatureF,DewpointF,PressureIn,WindDirection,WindDirectionDegrees,WindSpeedMPH,WindSpeedGustMPH,Humidity,HourlyPrecipIn,Conditions,Clouds,dailyrainin,SoftwareType,DateUTC
2013-05-24 00:00:00,71.4,68.7,29.69,South,180,0.0,0.0,89,0.00,,,0.00,fowsr,2013-05-24 04:00:00,
2013-05-24 00:05:00,71.1,68.4,29.69,South,180,0.0,0.0,89,0.00,,,0.00,fowsr,2013-05-24 04:05:00,
2013-05-24 00:10:00,70.9,68.5,29.69,South,180,0.0,0.0,90,0.00,,,0.00,fowsr,2013-05-24 04:10:00,
2013-05-24 00:15:00,70.7,68.3,29.69,South,180,0.0,0.0,90,0.00,,,0.00,fowsr,2013-05-24 04:15:00,
2013-05-24 00:20:00,70.7,68.5,29.69,South,180,0.0,0.0,91,0.00,,,0.00,fowsr,2013-05-24 04:20:00,
2013-05-24 00:25:00,70.7,68.5,29.69,SW,225,0.0,0.7,91,0.00,,,0.00,fowsr,2013-05-24 04:25:00,
2013-05-24 00:30:00,70.9,68.7,29.69,West,270,0.0,0.7,91,0.00,,,0.00,fowsr,2013-05-24 04:30:00,
2013-05-24 00:35:00,70.9,68.7,29.69,West,270,0.0,0.7,91,0.00,,,0.00,fowsr,2013-05-24 04:35:00,
2013-05-24 00:40:00,70.7,68.5,29.69,SE,135,0.0,0.7,91,0.00,,,0.00,fowsr,2013-05-24 04:40:00,
2013-05-24 00:45:00,70.7,68.8,29.70,SE,135,0.0,0.0,92,0.00,,,0.00,fowsr,2013-05-24 04:45:00,
2013-05-24 00:50:00,70.5,68.4,29.70,SE,135,0.0,0.0,91,0.00,,,0.00,fowsr,2013-05-24 04:50:00,
2013-05-24 00:55:00,70.2,68.2,29.70,SE,135,0.0,0.0,92,0.00,,,0.00,fowsr,2013-05-24 04:55:00,
2013-05-24 01:00:00,70.2,68.2,29.70,SE,135,0.0,0.0,92,0.00,,,0.00,fowsr,2013-05-24 05:00:00,
2013-05-24 01:05:00,70.0,68.1,29.69,SE,135,0.0,0.0,92,0.00,,,0.00,fowsr,2013-05-24 05:05:00,
2013-05-24 01:10:00,69.8,67.9,29.69,SE,135,0.0,0.0,92,0.00,,,0.00,fowsr,2013-05-24 05:10:00,
2013-05-24 01:15:00,69.8,67.9,29.69,SE,135,0.0,0.0,92,0.00,,,0.00,fowsr,2013-05-24 05:15:00,
2013-05-24 01:20:00,69.6,68.2,29.69,SE,135,0.0,0.0,94,0.00,,,0.00,fowsr,2013-05-24 05:20:00,
2013-05-24 01:25:00,69.6,68.2,29.69,SE,135,0.0,0.0,94,0.00,,,0.00,fowsr,2013-05-24 05:25:00,
2013-05-24 01:30:00,69.4,68.0,29.69,SE,135,0.0,0.0,94,0.00,,,0.00,fowsr,2013-05-24 05:30:00,
2013-05-24 01:35:00,69.3,67.8,29.68,SE,135,0.0,0.0,94,0.00,,,0.00,fowsr,2013-05-24 05:35:00,
2013-05-24 01:40:00,69.3,67.8,29.68,SE,135,0.0,0.0,94,0.00,,,0.00,fowsr,2013-05-24 05:40:00,
2013-05-24 01:45:00,69.3,68.1,29.68,SE,135,0.0,0.0,95,0.00,,,0.00,fowsr,2013-05-24 05:45:00,
2013-05-24 01:50:00,69.3,68.1,29.68,SE,135,0.0,0.0,95,0.00,,,0.00,fowsr,2013-05-24 05:50:00,
2013-05-24 01:55:00,69.3,68.1,29.68,SE,135,0.0,0.0,95,0.00,,,0.00,fowsr,2013-05-24 05:55:00,
2013-05-24 02:00:00,69.3,68.1,29.68,SE,135,0.0,0.0,95,0.00,,,0.00,fowsr,2013-05-24 06:00:00,
2013-05-24 02:05:00,69.3,68.1,29.68,SE,135,0.0,0.0,95,0.00,,,0.00,fowsr,2013-05-24 06:05:00,
2013-05-24 02:10:00,69.1,67.9,29.67,SE,135,0.0,0.0,95,0.00,,,0.00,fowsr,2013-05-24 06:10:00,
2013-05-24 02:15:00,69.1,68.1,29.67,SE,135,0.0,0.0,96,0.00,,,0.00,fowsr,2013-05-24 06:15:00,
2013-05-24 02:20:00,69.3,68.3,29.67,SE,135,0.0,0.0,96,0.00,,,0.00,fowsr,2013-05-24 06:20:00,
2013-05-24 02:25:00,69.3,68.3,29.67,SE,135,0.0,0.0,96,0.00,,,0.00,fowsr,2013-05-24 06:25:00,
2013-05-24 02:30:00,69.4,68.5,29.67,SE,135,0.0,0.0,96,0.00,,,0.00,fowsr,2013-05-24 06:30:00,
2013-05-24 02:35:00,69.4,68.5,29.67,SE,135,0.0,0.0,96,0.00,,,0.00,fowsr,2013-05-24 06:35:00,
2013-05-24 02:40:00,69.4,68.5,29.66,SE,135,0.0,0.0,96,0.00,,,0.00,fowsr,2013-05-24 06:40:00,
2013-05-24 02:45:00,69.4,68.5,29.67,SE,135,0.0,0.0,96,0.00,,,0.00,fowsr,2013-05-24 06:45:00,
2013-05-24 02:50:00,69.3,68.3,29.66,SE,135,0.0,0.0,96,0.00,,,0.00,fowsr,2013-05-24 06:50:00,
2013-05-24 02:55:00,69.3,68.3,29.66,SE,135,0.0,0.0,96,0.00,,,0.00,fowsr,2013-05-24 06:55:00,
2013-05-24 03:00:00,69.4,68.5,29.65,West,270,0.0,0.0,96,0.00,,,0.00,fowsr,2013-05-24 07:00:00,
2013-05-24 03:05:00,69.6,68.7,29.66,West,270,0.0,0.0,96,0.00,,,0.00,fowsr,2013-05-24 07:05:00,
2013-05-24 03:10:00,69.6,68.7,29.66,West,270,0.0,0.0,96,0.00,,,0.00,fowsr,2013-05-24 07:10:00,
2013-05-24 03:15:00,69.6,68.7,29.66,West,270,0.0,0.0,96,0.00,,,0.00,fowsr,2013-05-24 07:15:00,
2013-05-24 03:20:00,69.4,68.5,29.66,West,270,0.0,0.0,96,0.00,,,0.00,fowsr,2013-05-24 07:20:00,
2013-05-24 03:25:00,69.4,68.5,29.66,West,270,0.0,0.0,96,0.00,,,0.00,fowsr,2013-05-24 07:25:00,
2013-05-24 03:30:00,69.3,68.3,29.66,West,270,0.0,0.0,96,0.00,,,0.00,fowsr,2013-05-24 07:30:00,
2013-05-24 03:35:00,69.1,68.1,29.66,West,270,0.0,0.0,96,0.00,,,0.00,fowsr,2013-05-24 07:35:00,
2013-05-24 03:40:00,69.1,68.1,29.65,West,270,0.0,0.0,96,0.00,,,0.00,fowsr,2013-05-24 07:40:00,
2013-05-24 03:45:00,68.9,68.0,29.66,West,270,0.0,0.0,96,0.00,,,0.00,fowsr,2013-05-24 07:45:00,
2013-05-24 03:50:00,68.9,68.0,29.66,West,270,0.0,0.0,96,0.00,,,0.00,fowsr,2013-05-24 07:50:00,
2013-05-24 03:55:00,68.9,68.0,29.66,South,180,0.0,0.0,96,0.00,,,0.00,fowsr,2013-05-24 07:55:00,
2013-05-24 04:00:00,69.1,68.4,29.66,South,180,0.0,0.0,97,0.00,,,0.00,fowsr,2013-05-24 08:00:00,
2013-05-24 04:05:00,68.9,68.2,29.66,South,180,0.0,0.0,97,0.00,,,0.00,fowsr,2013-05-24 08:05:00,
2013-05-24 04:10:00,68.9,68.2,29.66,South,180,0.0,0.0,97,0.00,,,0.00,fowsr,2013-05-24 08:10:00,
2013-05-24 04:15:00,69.1,68.4,29.66,South,180,0.0,0.0,97,0.00,,,0.00,fowsr,2013-05-24 08:15:00,
2013-05-24 04:20:00,69.3,68.6,29.66,South,180,0.0,0.0,97,0.00,,,0.00,fowsr,2013-05-24 08:20:00,
2013-05-24 04:25:00,69.3,68.6,29.66,South,180,0.0,0.0,97,0.00,,,0.00,fowsr,2013-05-24 08:25:00,
2013-05-24 04:30:00,69.3,68.6,29.66,South,180,0.0,0.0,97,0.00,,,0.00,fowsr,2013-05-24 08:30:00,
2013-05-24 04:35:00,69.3,68.6,29.66,South,180,0.0,0.0,97,0.00,,,0.00,fowsr,2013-05-24 08:35:00,
2013-05-24 04:40:00,69.1,68.6,29.66,South,180,0.0,0.0,98,0.00,,,0.00,fowsr,2013-05-24 08:40:00,
2013-05-24 04:45:00,69.3,68.8,29.65,South,180,0.0,0.0,98,0.00,,,0.00,fowsr,2013-05-24 08:45:00,
2013-05-24 04:50:00,69.3,68.8,29.66,South,180,0.0,0.0,98,0.00,,,0.00,fowsr,2013-05-24 08:50:00,
2013-05-24 04:55:00,69.4,69.0,29.65,South,180,0.0,0.0,98,0.00,,,0.00,fowsr,2013-05-24 08:55:00,
2013-05-24 05:00:00,69.4,69.0,29.66,South,180,0.0,0.0,98,0.00,,,0.00,fowsr,2013-05-24 09:00:00,
2013-05-24 05:05:00,69.3,68.8,29.66,South,180,0.0,0.0,98,0.00,,,0.00,fowsr,2013-05-24 09:05:00,
2013-05-24 05:10:00,69.3,68.8,29.65,South,180,0.0,0.0,98,0.00,,,0.00,fowsr,2013-05-24 09:10:00,
2013-05-24 05:15:00,69.4,69.0,29.66,South,180,0.0,0.0,98,0.00,,,0.00,fowsr,2013-05-24 09:15:00,
2013-05-24 05:20:00,69.4,69.0,29.66,South,180,0.0,0.0,98,0.00,,,0.00,fowsr,2013-05-24 09:20:00,
2013-05-24 05:25:00,69.4,69.0,29.66,South,180,0.0,0.0,98,0.00,,,0.00,fowsr,2013-05-24 09:25:00,
2013-05-24 05:30:00,69.4,69.2,29.66,South,180,0.0,0.0,99,0.00,,,0.00,fowsr,2013-05-24 09:30:00,
2013-05-24 05:35:00,69.4,69.2,29.67,South,180,0.0,0.0,99,0.00,,,0.00,fowsr,2013-05-24 09:35:00,
2013-05-24 05:40:00,69.4,69.2,29.67,South,180,0.0,0.0,99,0.00,,,0.00,fowsr,2013-05-24 09:40:00,
2013-05-24 05:45:00,69.3,69.0,29.67,South,180,0.0,0.0,99,0.00,,,0.00,fowsr,2013-05-24 09:45:00,
2013-05-24 05:50:00,69.1,68.8,29.67,South,180,0.0,0.0,99,0.00,,,0.00,fowsr,2013-05-24 09:50:00,
2013-05-24 05:55:00,69.1,68.8,29.67,South,180,0.0,0.0,99,0.00,,,0.00,fowsr,2013-05-24 09:55:00,
2013-05-24 06:00:00,69.1,68.8,29.67,South,180,0.0,0.0,99,0.00,,,0.00,fowsr,2013-05-24 10:00:00,
2013-05-24 06:05:00,68.9,68.7,29.67,South,180,0.0,0.0,99,0.00,,,0.00,fowsr,2013-05-24 10:05:00,
2013-05-24 06:10:00,69.1,68.8,29.68,South,180,0.0,0.0,99,0.00,,,0.00,fowsr,2013-05-24 10:10:00,
2013-05-24 06:15:00,69.1,68.8,29.68,South,180,0.0,0.0,99,0.00,,,0.00,fowsr,2013-05-24 10:15:00,
2013-05-24 06:20:00,69.3,69.0,29.68,South,180,0.0,0.0,99,0.00,,,0.00,fowsr,2013-05-24 10:20:00,
2013-05-24 06:25:00,69.1,68.8,29.69,South,180,0.0,0.0,99,0.00,,,0.00,fowsr,2013-05-24 10:25:00,
2013-05-24 06:30:00,69.1,68.8,29.69,South,180,0.0,0.0,99,0.00,,,0.00,fowsr,2013-05-24 10:30:00,
2013-05-24 06:35:00,69.3,69.0,29.69,South,180,0.0,0.0,99,0.00,,,0.00,fowsr,2013-05-24 10:35:00,
2013-05-24 06:40:00,69.3,69.0,29.69,South,180,0.0,0.0,99,0.00,,,0.00,fowsr,2013-05-24 10:40:00,
2013-05-24 06:45:00,69.3,69.0,29.69,South,180,0.0,0.0,99,0.00,,,0.00,fowsr,2013-05-24 10:45:00,
2013-05-24 06:50:00,69.4,69.2,29.69,South,180,0.0,0.0,99,0.00,,,0.00,fowsr,2013-05-24 10:50:00,
2013-05-24 06:55:00,69.6,69.4,29.70,South,180,0.0,0.0,99,0.00,,,0.00,fowsr,2013-05-24 10:55:00,
2013-05-24 07:00:00,69.8,69.3,29.70,South,180,0.0,0.0,98,0.00,,,0.00,fowsr,2013-05-24 11:00:00,
2013-05-24 07:05:00,70.0,69.5,29.70,South,180,0.0,0.0,98,0.00,,,0.00,fowsr,2013-05-24 11:05:00,
2013-05-24 07:10:00,70.3,69.9,29.70,South,180,0.0,0.0,98,0.00,,,0.00,fowsr,2013-05-24 11:10:00,
2013-05-24 07:15:00,70.7,70.2,29.71,SW,225,1.6,2.2,98,0.00,,,0.00,fowsr,2013-05-24 11:15:00,
2013-05-24 07:20:00,71.1,70.6,29.71,North,0,0.7,2.2,98,0.00,,,0.00,fowsr,2013-05-24 11:20:00,
2013-05-24 07:25:00,71.6,70.9,29.71,NW,315,0.0,0.0,97,0.00,,,0.00,fowsr,2013-05-24 11:25:00,
2013-05-24 07:30:00,72.0,71.3,29.71,SW,225,1.6,3.1,97,0.00,,,0.00,fowsr,2013-05-24 11:30:00,
2013-05-24 07:35:00,72.7,72.0,29.71,East,90,0.0,0.7,97,0.00,,,0.00,fowsr,2013-05-24 11:35:00,
2013-05-24 07:40:00,73.2,72.5,29.71,North,0,0.0,0.7,97,0.00,,,0.00,fowsr,2013-05-24 11:40:00,
2013-05-24 07:45:00,73.4,72.9,29.71,West,270,2.2,3.8,98,0.00,,,0.00,fowsr,2013-05-24 11:45:00,
2013-05-24 07:50:00,73.9,73.5,29.71,West,270,2.2,4.5,98,0.00,,,0.00,fowsr,2013-05-24 11:50:00,
2013-05-24 07:55:00,74.7,73.9,29.71,South,180,0.7,3.1,97,0.00,,,0.00,fowsr,2013-05-24 11:55:00,
2013-05-24 08:00:00,75.4,74.2,29.71,SW,225,1.6,3.1,95,0.00,,,0.00,fowsr,2013-05-24 12:00:00,
2013-05-24 08:05:00,75.9,74.2,29.71,NE,45,0.7,2.2,93,0.00,,,0.00,fowsr,2013-05-24 12:05:00,
2013-05-24 08:10:00,76.8,74.8,29.71,West,270,0.7,2.2,92,0.00,,,0.00,fowsr,2013-05-24 12:10:00,
2013-05-24 08:15:00,76.8,74.0,29.71,NW,315,2.2,4.5,89,0.00,,,0.00,fowsr,2013-05-24 12:15:00,
2013-05-24 08:20:00,77.2,74.1,29.71,West,270,0.7,2.2,88,0.00,,,0.00,fowsr,2013-05-24 12:20:00,
2013-05-24 08:25:00,78.3,74.9,29.72,SW,225,1.6,3.1,87,0.00,,,0.00,fowsr,2013-05-24 12:25:00,
2013-05-24 08:30:00,78.8,74.6,29.72,SW,225,2.2,4.5,84,0.00,,,0.00,fowsr,2013-05-24 12:30:00,
2013-05-24 08:35:00,78.6,74.4,29.71,East,90,0.7,1.6,84,0.00,,,0.00,fowsr,2013-05-24 12:35:00,
2013-05-24 08:40:00,79.0,74.5,29.71,SW,225,1.6,3.1,83,0.00,,,0.00,fowsr,2013-05-24 12:40:00,
2013-05-24 08:45:00,79.0,74.5,29.71,South,180,3.1,4.5,83,0.00,,,0.00,fowsr,2013-05-24 12:45:00,
2013-05-24 08:50:00,79.5,75.0,29.72,West,270,1.6,3.1,83,0.00,,,0.00,fowsr,2013-05-24 12:50:00,
2013-05-24 08:55:00,80.2,74.8,29.72,NW,315,3.8,7.6,80,0.00,,,0.00,fowsr,2013-05-24 12:55:00,
2013-05-24 09:00:00,80.6,74.6,29.72,South,180,4.5,5.4,78,0.00,,,0.00,fowsr,2013-05-24 13:00:00,
2013-05-24 09:05:00,81.0,74.9,29.72,SW,225,0.7,2.2,78,0.00,,,0.00,fowsr,2013-05-24 13:05:00,
2013-05-24 09:10:00,83.5,77.0,29.72,SW,225,2.2,5.4,77,0.00,,,0.00,fowsr,2013-05-24 13:10:00,
2013-05-24 09:15:00,83.3,75.6,29.72,SW,225,3.1,4.5,73,0.00,,,0.00,fowsr,2013-05-24 13:15:00,
2013-05-24 09:20:00,82.8,75.4,29.73,West,270,1.6,3.8,74,0.00,,,0.00,fowsr,2013-05-24 13:20:00,
2013-05-24 09:25:00,82.6,75.2,29.73,South,180,2.2,3.8,74,0.00,,,0.00,fowsr,2013-05-24 13:25:00,
2013-05-24 09:30:00,82.9,75.9,29.72,SW,225,2.2,4.5,75,0.00,,,0.00,fowsr,2013-05-24 13:30:00,
2013-05-24 09:35:00,83.5,76.1,29.72,East,90,1.6,3.1,74,0.00,,,0.00,fowsr,2013-05-24 13:35:00,
2013-05-24 09:40:00,86.0,77.1,29.73,SW,225,3.8,5.4,70,0.00,,,0.00,fowsr,2013-05-24 13:40:00,
2013-05-24 09:45:00,85.8,76.6,29.72,West,270,1.6,3.1,69,0.00,,,0.00,fowsr,2013-05-24 13:45:00,
2013-05-24 09:50:00,86.4,76.8,29.72,West,270,2.2,3.8,68,0.00,,,0.00,fowsr,2013-05-24 13:50:00,
2013-05-24 09:55:00,86.2,76.3,29.72,West,270,1.6,2.2,67,0.00,,,0.00,fowsr,2013-05-24 13:55:00,
2013-05-24 10:00:00,86.9,76.9,29.72,NE,45,2.2,3.8,67,0.00,,,0.00,fowsr,2013-05-24 14:00:00,
2013-05-24 10:05:00,87.4,76.7,29.72,NW,315,6.0,7.6,65,0.00,,,0.00,fowsr,2013-05-24 14:05:00,
2013-05-24 10:10:00,86.4,75.7,29.72,SW,225,1.6,3.1,65,0.00,,,0.00,fowsr,2013-05-24 14:10:00,
2013-05-24 10:15:00,87.4,77.4,29.72,West,270,1.6,2.2,67,0.00,,,0.00,fowsr,2013-05-24 14:15:00,
2013-05-24 10:20:00,88.0,77.2,29.73,WNW,292,2.2,3.1,65,0.00,,,0.00,fowsr,2013-05-24 14:20:00,
2013-05-24 10:25:00,87.8,76.7,29.73,West,270,1.6,3.1,64,0.00,,,0.00,fowsr,2013-05-24 14:25:00,
2013-05-24 10:30:00,88.5,77.3,29.73,SW,225,0.7,2.2,64,0.00,,,0.00,fowsr,2013-05-24 14:30:00,
2013-05-24 10:35:00,89.1,77.1,29.73,West,270,1.6,2.2,62,0.00,,,0.00,fowsr,2013-05-24 14:35:00,
2013-05-24 10:40:00,89.6,77.2,29.72,West,270,0.7,1.6,61,0.00,,,0.00,fowsr,2013-05-24 14:40:00,
2013-05-24 10:45:00,89.6,76.4,29.72,NW,315,2.2,4.5,59,0.00,,,0.00,fowsr,2013-05-24 14:45:00,
2013-05-24 10:50:00,89.6,76.4,29.73,NW,315,2.2,4.5,59,0.00,,,0.00,fowsr,2013-05-24 14:50:00,
2013-05-24 10:55:00,90.1,77.7,29.73,West,270,3.8,4.5,61,0.00,,,0.00,fowsr,2013-05-24 14:55:00,
2013-05-24 11:00:00,90.7,77.8,29.73,West,270,2.2,5.4,60,0.00,,,0.00,fowsr,2013-05-24 15:00:00,
2013-05-24 11:05:00,90.7,77.4,29.73,SW,225,0.7,1.6,59,0.00,,,0.00,fowsr,2013-05-24 15:05:00,
2013-05-24 11:10:00,91.8,77.1,29.73,South,180,3.1,4.5,56,0.00,,,0.00,fowsr,2013-05-24 15:10:00,
2013-05-24 11:15:00,91.4,75.9,29.73,NW,315,0.7,2.2,54,0.00,,,0.00,fowsr,2013-05-24 15:15:00,
2013-05-24 11:20:00,92.3,76.7,29.73,West,270,2.2,5.4,54,0.00,,,0.00,fowsr,2013-05-24 15:20:00,
2013-05-24 11:25:00,92.8,76.8,29.73,SW,225,1.6,3.1,53,0.00,,,0.00,fowsr,2013-05-24 15:25:00,
2013-05-24 11:30:00,93.2,75.7,29.73,SW,225,3.1,3.8,50,0.00,,,0.00,fowsr,2013-05-24 15:30:00,
2013-05-24 11:35:00,93.2,75.2,29.73,SW,225,0.7,1.6,49,0.00,,,0.00,fowsr,2013-05-24 15:35:00,
2013-05-24 11:40:00,93.2,74.2,29.73,SW,225,4.5,6.0,47,0.00,,,0.00,fowsr,2013-05-24 15:40:00,
2013-05-24 11:45:00,93.2,75.2,29.73,NW,315,0.7,2.2,49,0.00,,,0.00,fowsr,2013-05-24 15:45:00,
2013-05-24 11:50:00,94.6,75.0,29.73,West,270,2.2,3.1,46,0.00,,,0.00,fowsr,2013-05-24 15:50:00,
2013-05-24 11:55:00,94.1,73.5,29.73,NW,315,2.2,3.8,44,0.00,,,0.00,fowsr,2013-05-24 15:55:00,
2013-05-24 12:00:00,94.3,73.6,29.73,West,270,0.7,1.6,44,0.00,,,0.00,fowsr,2013-05-24 16:00:00,
2013-05-24 12:05:00,94.3,73.6,29.72,West,270,0.7,1.6,44,0.00,,,0.00,fowsr,2013-05-24 16:05:00,
2013-05-24 12:10:00,95.0,73.7,29.73,West,270,0.7,2.2,43,0.00,,,0.00,fowsr,2013-05-24 16:10:00,
2013-05-24 12:15:00,95.4,74.6,29.72,West,270,0.7,2.2,44,0.00,,,0.00,fowsr,2013-05-24 16:15:00,
2013-05-24 12:20:00,95.7,74.3,29.72,West,270,0.7,2.2,43,0.00,,,0.00,fowsr,2013-05-24 16:20:00,
2013-05-24 12:25:00,96.1,74.6,29.72,SW,225,3.1,4.5,43,0.00,,,0.00,fowsr,2013-05-24 16:25:00,
2013-05-24 12:30:00,95.5,71.9,29.72,West,270,2.2,3.8,39,0.00,,,0.00,fowsr,2013-05-24 16:30:00,
2013-05-24 12:35:00,95.5,71.3,29.72,North,0,1.6,2.2,38,0.00,,,0.00,fowsr,2013-05-24 16:35:00,
2013-05-24 12:40:00,96.1,72.3,29.73,NW,315,3.1,5.4,39,0.00,,,0.00,fowsr,2013-05-24 16:40:00,
2013-05-24 12:45:00,96.4,73.8,29.72,South,180,3.8,5.4,41,0.00,,,0.00,fowsr,2013-05-24 16:45:00,
2013-05-24 12:50:00,96.1,71.7,29.72,SW,225,2.2,3.8,38,0.00,,,0.00,fowsr,2013-05-24 16:50:00,
2013-05-24 12:55:00,95.7,70.8,29.72,SW,225,0.7,2.2,37,0.00,,,0.00,fowsr,2013-05-24 16:55:00,
2013-05-24 13:00:00,95.7,70.8,29.73,SW,225,3.1,6.0,37,0.00,,,0.00,fowsr,2013-05-24 17:00:00,
2013-05-24 13:05:00,95.7,70.8,29.72,NE,45,1.6,2.2,37,0.00,,,0.00,fowsr,2013-05-24 17:05:00,
2013-05-24 13:10:00,95.7,68.9,29.72,SW,225,4.5,9.2,34,0.00,,,0.00,fowsr,2013-05-24 17:10:00,
2013-05-24 13:15:00,95.4,69.2,29.73,South,180,1.6,2.2,35,0.00,,,0.00,fowsr,2013-05-24 17:15:00,
2013-05-24 13:20:00,95.0,68.2,29.72,NW,315,3.8,7.6,34,0.00,,,0.00,fowsr,2013-05-24 17:20:00,
2013-05-24 13:25:00,95.7,70.2,29.72,SW,225,1.6,3.1,36,0.00,,,0.00,fowsr,2013-05-24 17:25:00,
2013-05-24 13:30:00,96.3,70.0,29.71,NW,315,1.6,3.1,35,0.00,,,0.00,fowsr,2013-05-24 17:30:00,
2013-05-24 13:35:00,97.2,71.4,29.72,SW,225,1.6,4.5,36,0.00,,,0.00,fowsr,2013-05-24 17:35:00,
2013-05-24 13:40:00,97.2,71.4,29.71,NE,45,1.6,2.2,36,0.00,,,0.00,fowsr,2013-05-24 17:40:00,
2013-05-24 13:45:00,96.8,71.1,29.71,East,90,1.6,3.1,36,0.00,,,0.00,fowsr,2013-05-24 17:45:00,
2013-05-24 13:50:00,97.0,70.6,29.71,NW,315,2.2,6.0,35,0.00,,,0.00,fowsr,2013-05-24 17:50:00,
2013-05-24 13:55:00,97.0,71.9,29.71,NNE,22,0.7,2.2,37,0.00,,,0.00,fowsr,2013-05-24 17:55:00,
2013-05-24 14:00:00,97.7,71.9,29.71,SW,225,4.5,6.9,36,0.00,,,0.00,fowsr,2013-05-24 18:00:00,
2013-05-24 14:05:00,97.7,71.9,29.70,SW,225,4.5,6.9,36,0.00,,,0.00,fowsr,2013-05-24 18:05:00,
2013-05-24 14:10:00,97.2,71.4,29.70,SW,225,2.2,3.8,36,0.00,,,0.00,fowsr,2013-05-24 18:10:00,
2013-05-24 14:15:00,97.2,70.7,29.70,SW,225,3.1,7.6,35,0.00,,,0.00,fowsr,2013-05-24 18:15:00,
2013-05-24 14:20:00,96.4,72.0,29.70,West,270,1.6,3.1,38,0.00,,,0.00,fowsr,2013-05-24 18:20:00,
2013-05-24 14:25:00,97.0,71.2,29.70,East,90,2.2,4.5,36,0.00,,,0.00,fowsr,2013-05-24 18:25:00,
2013-05-24 14:30:00,97.9,72.7,29.69,SW,225,2.2,3.1,37,0.00,,,0.00,fowsr,2013-05-24 18:30:00,
2013-05-24 14:35:00,97.9,72.0,29.70,SW,225,2.2,3.1,36,0.00,,,0.00,fowsr,2013-05-24 18:35:00,
2013-05-24 14:40:00,98.1,72.2,29.70,South,180,1.6,2.2,36,0.00,,,0.00,fowsr,2013-05-24 18:40:00,
2013-05-24 14:45:00,99.0,72.3,29.69,NE,45,2.2,3.8,35,0.00,,,0.00,fowsr,2013-05-24 18:45:00,
2013-05-24 14:50:00,97.9,72.0,29.70,West,270,3.1,4.5,36,0.00,,,0.00,fowsr,2013-05-24 18:50:00,
2013-05-24 14:55:00,96.8,71.1,29.69,West,270,6.0,9.2,36,0.00,,,0.00,fowsr,2013-05-24 18:55:00,
2013-05-24 15:00:00,96.8,71.7,29.70,South,180,0.7,2.2,37,0.00,,,0.00,fowsr,2013-05-24 19:00:00,
2013-05-24 15:05:00,97.2,70.7,29.69,SW,225,1.6,3.1,35,0.00,,,0.00,fowsr,2013-05-24 19:05:00,
2013-05-24 15:10:00,97.2,70.1,29.69,NW,315,2.2,4.5,34,0.00,,,0.00,fowsr,2013-05-24 19:10:00,
2013-05-24 15:15:00,97.5,70.4,29.69,SW,225,4.5,8.3,34,0.00,,,0.00,fowsr,2013-05-24 19:15:00,
2013-05-24 15:20:00,96.4,69.5,29.69,West,270,0.0,1.6,34,0.00,,,0.00,fowsr,2013-05-24 19:20:00,
2013-05-24 15:25:00,97.3,70.9,29.69,West,270,2.2,3.1,35,0.00,,,0.00,fowsr,2013-05-24 19:25:00,
2013-05-24 15:30:00,98.4,71.1,29.69,West,270,2.2,4.5,34,0.00,,,0.00,fowsr,2013-05-24 19:30:00,
2013-05-24 15:35:00,99.3,71.2,29.69,NW,315,1.6,2.2,33,0.00,,,0.00,fowsr,2013-05-24 19:35:00,
2013-05-24 15:40:00,99.7,71.5,29.69,South,180,0.7,3.1,33,0.00,,,0.00,fowsr,2013-05-24 19:40:00,
2013-05-24 15:45:00,99.7,71.5,29.69,West,270,3.8,7.6,33,0.00,,,0.00,fowsr,2013-05-24 19:45:00,
2013-05-24 15:50:00,98.6,69.9,29.69,NW,315,2.2,4.5,32,0.00,,,0.00,fowsr,2013-05-24 19:50:00,
2013-05-24 15:55:00,98.6,70.6,29.69,West,270,3.1,5.4,33,0.00,,,0.00,fowsr,2013-05-24 19:55:00,
2013-05-24 16:00:00,98.6,69.9,29.68,NW,315,1.6,3.8,32,0.00,,,0.00,fowsr,2013-05-24 20:00:00,
2013-05-24 16:05:00,98.6,69.9,29.68,NW,315,1.6,3.8,32,0.00,,,0.00,fowsr,2013-05-24 20:05:00,
2013-05-24 16:10:00,97.0,69.2,29.68,West,270,3.8,5.4,33,0.00,,,0.00,fowsr,2013-05-24 20:10:00,
2013-05-24 16:15:00,96.6,70.3,29.68,West,270,2.2,3.8,35,0.00,,,0.00,fowsr,2013-05-24 20:15:00,
2013-05-24 16:20:00,98.2,71.0,29.68,North,0,3.1,5.4,34,0.00,,,0.00,fowsr,2013-05-24 20:20:00,
2013-05-24 16:25:00,96.6,70.3,29.68,NW,315,1.6,3.8,35,0.00,,,0.00,fowsr,2013-05-24 20:25:00,
2013-05-24 16:30:00,96.3,69.3,29.68,NE,45,1.6,3.8,34,0.00,,,0.00,fowsr,2013-05-24 20:30:00,
2013-05-24 16:35:00,97.5,70.4,29.68,West,270,2.2,3.8,34,0.00,,,0.00,fowsr,2013-05-24 20:35:00,
2013-05-24 16:40:00,97.3,68.8,29.67,SW,225,2.2,4.5,32,0.00,,,0.00,fowsr,2013-05-24 20:40:00,
2013-05-24 16:45:00,97.7,70.5,29.67,WNW,292,3.1,4.5,34,0.00,,,0.00,fowsr,2013-05-24 20:45:00,
2013-05-24 16:50:00,97.9,69.3,29.68,SE,135,3.1,6.0,32,0.00,,,0.00,fowsr,2013-05-24 20:50:00,
2013-05-24 16:55:00,97.7,69.8,29.67,West,270,1.6,2.2,33,0.00,,,0.00,fowsr,2013-05-24 20:55:00,
2013-05-24 17:00:00,97.5,69.0,29.67,West,270,2.2,3.8,32,0.00,,,0.00,fowsr,2013-05-24 21:00:00,
2013-05-24 17:05:00,95.7,68.2,29.67,West,270,0.7,2.2,33,0.00,,,0.00,fowsr,2013-05-24 21:05:00,
2013-05-24 17:10:00,95.0,68.2,29.68,West,270,0.7,2.2,34,0.00,,,0.00,fowsr,2013-05-24 21:10:00,
2013-05-24 17:15:00,94.5,68.5,29.68,SW,225,2.2,5.4,35,0.00,,,0.00,fowsr,2013-05-24 21:15:00,
2013-05-24 17:20:00,95.5,68.7,29.68,SW,225,1.6,6.0,34,0.00,,,0.00,fowsr,2013-05-24 21:20:00,
2013-05-24 17:25:00,95.7,68.9,29.67,NW,315,3.8,6.0,34,0.00,,,0.00,fowsr,2013-05-24 21:25:00,
2013-05-24 17:30:00,95.7,68.9,29.68,NW,315,0.7,1.6,34,0.00,,,0.00,fowsr,2013-05-24 21:30:00,
2013-05-24 17:35:00,95.5,68.7,29.67,NW,315,0.7,2.2,34,0.00,,,0.00,fowsr,2013-05-24 21:35:00,
2013-05-24 17:40:00,95.5,69.4,29.67,NW,315,1.6,3.1,35,0.00,,,0.00,fowsr,2013-05-24 21:40:00,
2013-05-24 17:45:00,95.7,68.9,29.67,NW,315,2.2,4.5,34,0.00,,,0.00,fowsr,2013-05-24 21:45:00,
2013-05-24 17:50:00,95.7,68.9,29.67,West,270,3.1,4.5,34,0.00,,,0.00,fowsr,2013-05-24 21:50:00,
2013-05-24 17:55:00,94.1,68.8,29.67,West,270,1.6,2.2,36,0.00,,,0.00,fowsr,2013-05-24 21:55:00,
2013-05-24 18:00:00,92.8,68.3,29.67,NW,315,2.2,3.8,37,0.00,,,0.00,fowsr,2013-05-24 22:00:00,
2013-05-24 18:05:00,92.8,68.3,29.67,NW,315,2.2,3.8,37,0.00,,,0.00,fowsr,2013-05-24 22:05:00,
2013-05-24 18:10:00,91.2,67.0,29.67,SW,225,0.7,1.6,37,0.00,,,0.00,fowsr,2013-05-24 22:10:00,
2013-05-24 18:15:00,91.0,66.2,29.67,West,270,1.6,3.1,36,0.00,,,0.00,fowsr,2013-05-24 22:15:00,
2013-05-24 18:20:00,91.2,67.0,29.67,West,270,0.7,2.2,37,0.00,,,0.00,fowsr,2013-05-24 22:20:00,
2013-05-24 18:25:00,91.4,68.3,29.67,SW,225,1.6,4.5,39,0.00,,,0.00,fowsr,2013-05-24 22:25:00,
2013-05-24 18:30:00,91.0,67.4,29.67,North,0,0.7,1.6,38,0.00,,,0.00,fowsr,2013-05-24 22:30:00,
2013-05-24 18:35:00,90.7,68.3,29.67,West,270,0.0,0.7,40,0.00,,,0.00,fowsr,2013-05-24 22:35:00,
2013-05-24 18:40:00,89.8,67.5,29.67,West,270,0.7,1.6,40,0.00,,,0.00,fowsr,2013-05-24 22:40:00,
2013-05-24 18:45:00,89.4,67.7,29.68,SW,225,2.2,4.5,41,0.00,,,0.00,fowsr,2013-05-24 22:45:00,
2013-05-24 18:50:00,84.0,71.2,29.70,NW,315,9.8,17.4,59,0.09,,,0.09,fowsr,2013-05-24 22:50:00,
2013-05-24 18:55:00,74.8,68.7,29.69,SE,135,4.5,8.3,77,0.19,,,0.19,fowsr,2013-05-24 22:55:00,
2013-05-24 19:00:00,72.5,67.6,29.70,South,180,2.2,3.8,81,0.19,,,0.19,fowsr,2013-05-24 23:00:00,
2013-05-24 19:05:00,71.8,67.5,29.70,NW,315,1.6,3.1,83,0.19,,,0.19,fowsr,2013-05-24 23:05:00,
2013-05-24 19:10:00,71.8,68.0,29.69,NW,315,5.4,8.3,85,0.19,,,0.19,fowsr,2013-05-24 23:10:00,
2013-05-24 19:15:00,72.5,69.0,29.69,SE,135,1.6,3.1,86,0.19,,,0.19,fowsr,2013-05-24 23:15:00,
2013-05-24 19:20:00,72.7,69.4,29.69,SE,135,1.6,2.2,87,0.19,,,0.19,fowsr,2013-05-24 23:20:00,
2013-05-24 19:25:00,72.9,69.4,29.69,East,90,1.6,3.8,86,0.19,,,0.19,fowsr,2013-05-24 23:25:00,
2013-05-24 19:30:00,72.9,69.1,29.69,SE,135,0.0,0.0,85,0.19,,,0.19,fowsr,2013-05-24 23:30:00,
2013-05-24 19:35:00,73.0,69.5,29.69,SE,135,0.0,0.0,86,0.19,,,0.19,fowsr,2013-05-24 23:35:00,
2013-05-24 19:40:00,73.0,69.8,29.71,West,270,0.7,2.2,87,0.19,,,0.19,fowsr,2013-05-24 23:40:00,
2013-05-24 19:50:00,73.9,69.3,29.70,NW,315,0.7,2.2,82,0.20,,,0.20,fowsr,2013-05-24 23:50:00,
2013-05-24 19:55:00,73.9,68.5,29.70,SE,135,2.2,4.5,79,0.07,,,0.20,fowsr,2013-05-24 23:55:00,
2013-05-24 20:00:00,74.1,67.8,29.70,North,0,3.1,4.5,76,0.01,,,0.20,fowsr,2013-05-25 00:00:00,
2013-05-24 20:05:00,74.3,67.0,29.70,East,90,1.6,2.2,73,0.01,,,0.20,fowsr,2013-05-25 00:05:00,
2013-05-24 20:10:00,74.5,67.5,29.70,NE,45,0.0,0.7,74,0.01,,,0.20,fowsr,2013-05-25 00:10:00,
2013-05-24 20:15:00,73.9,68.2,29.71,West,270,0.0,0.0,78,0.01,,,0.20,fowsr,2013-05-25 00:15:00,
2013-05-24 20:20:00,73.6,68.4,29.71,South,180,0.7,1.6,80,0.01,,,0.20,fowsr,2013-05-25 00:20:00,
2013-05-24 20:25:00,73.8,69.1,29.71,North,0,0.0,0.0,82,0.01,,,0.20,fowsr,2013-05-25 00:25:00,
2013-05-24 20:30:00,73.4,69.1,29.71,North,0,0.0,0.0,83,0.01,,,0.20,fowsr,2013-05-25 00:30:00,
2013-05-24 20:35:00,73.0,69.0,29.71,East,90,0.7,1.6,84,0.01,,,0.20,fowsr,2013-05-25 00:35:00,
2013-05-24 20:40:00,73.4,69.1,29.71,East,90,0.7,1.6,83,0.01,,,0.20,fowsr,2013-05-25 00:40:00,
2013-05-24 20:45:00,74.3,69.9,29.72,East,90,0.0,0.0,83,0.01,,,0.20,fowsr,2013-05-25 00:45:00,
2013-05-24 20:50:00,74.5,70.7,29.72,East,90,0.0,0.0,85,0.00,,,0.20,fowsr,2013-05-25 00:50:00,
2013-05-24 20:55:00,74.5,70.4,29.72,East,90,0.0,0.0,84,0.00,,,0.20,fowsr,2013-05-25 00:55:00,
2013-05-24 21:00:00,74.8,70.7,29.72,SE,135,0.0,0.7,84,0.00,,,0.20,fowsr,2013-05-25 01:00:00,
2013-05-24 21:05:00,75.0,70.6,29.72,SE,135,0.0,0.7,83,0.00,,,0.20,fowsr,2013-05-25 01:05:00,
2013-05-24 21:10:00,75.6,70.9,29.72,NE,45,0.0,0.0,82,0.00,,,0.20,fowsr,2013-05-25 01:10:00,
2013-05-24 21:15:00,75.4,70.4,29.72,NE,45,0.0,0.0,81,0.00,,,0.20,fowsr,2013-05-25 01:15:00,
2013-05-24 21:20:00,75.4,69.9,29.73,East,90,0.7,2.2,79,0.00,,,0.20,fowsr,2013-05-25 01:20:00,
2013-05-24 21:25:00,76.5,70.0,29.73,East,90,0.7,2.2,76,0.00,,,0.20,fowsr,2013-05-25 01:25:00,
2013-05-24 21:30:00,77.0,69.6,29.73,NW,315,0.7,1.6,73,0.00,,,0.20,fowsr,2013-05-25 01:30:00,
2013-05-24 21:35:00,77.2,69.8,29.73,West,270,0.7,1.6,73,0.00,,,0.20,fowsr,2013-05-25 01:35:00,
2013-05-24 21:40:00,77.4,70.2,29.73,East,90,0.0,0.7,74,0.00,,,0.20,fowsr,2013-05-25 01:40:00,
2013-05-24 21:45:00,77.4,70.2,29.74,East,90,0.0,1.6,74,0.00,,,0.20,fowsr,2013-05-25 01:45:00,
2013-05-24 21:50:00,77.5,70.4,29.74,East,90,2.2,3.1,74,0.00,,,0.20,fowsr,2013-05-25 01:50:00,
2013-05-24 21:55:00,77.7,70.9,29.74,East,90,1.6,2.2,75,0.00,,,0.20,fowsr,2013-05-25 01:55:00,
2013-05-24 22:00:00,77.7,70.9,29.74,SE,135,0.0,0.7,75,0.00,,,0.20,fowsr,2013-05-25 02:00:00,
2013-05-24 22:05:00,77.5,71.0,29.75,SE,135,0.0,2.2,76,0.00,,,0.20,fowsr,2013-05-25 02:05:00,
2013-05-24 22:10:00,77.4,70.9,29.75,NE,45,0.0,1.6,76,0.00,,,0.20,fowsr,2013-05-25 02:10:00,
2013-05-24 22:15:00,77.0,70.8,29.75,East,90,0.7,1.6,77,0.00,,,0.20,fowsr,2013-05-25 02:15:00,
2013-05-24 22:20:00,76.8,71.2,29.75,East,90,0.0,0.7,79,0.00,,,0.20,fowsr,2013-05-25 02:20:00,
2013-05-24 22:25:00,76.6,71.4,29.75,East,90,0.0,0.0,80,0.00,,,0.20,fowsr,2013-05-25 02:25:00,
2013-05-24 22:30:00,76.1,70.8,29.76,NW,315,0.0,0.0,80,0.00,,,0.20,fowsr,2013-05-25 02:30:00,
2013-05-24 22:35:00,75.7,70.8,29.76,NE,45,1.6,3.1,81,0.00,,,0.20,fowsr,2013-05-25 02:35:00,
2013-05-24 22:40:00,75.9,70.4,29.76,East,90,0.0,0.0,79,0.00,,,0.20,fowsr,2013-05-25 02:40:00,
2013-05-24 22:45:00,76.1,69.7,29.76,SE,135,1.6,4.5,76,0.00,,,0.20,fowsr,2013-05-25 02:45:00,
2013-05-24 22:50:00,77.0,69.6,29.76,East,90,0.7,1.6,73,0.00,,,0.20,fowsr,2013-05-25 02:50:00,
2013-05-24 22:55:00,77.0,69.6,29.77,East,90,0.7,1.6,73,0.00,,,0.20,fowsr,2013-05-25 02:55:00,
2013-05-24 23:00:00,76.6,69.6,29.77,South,180,0.0,0.0,74,0.00,,,0.20,fowsr,2013-05-25 03:00:00,
2013-05-24 23:05:00,76.3,69.2,29.77,North,0,0.7,2.2,74,0.00,,,0.20,fowsr,2013-05-25 03:05:00,
2013-05-24 23:10:00,76.1,69.0,29.78,East,90,0.0,1.6,74,0.00,,,0.20,fowsr,2013-05-25 03:10:00,
2013-05-24 23:15:00,75.9,68.9,29.78,West,270,0.0,0.0,74,0.00,,,0.20,fowsr,2013-05-25 03:15:00,
2013-05-24 23:20:00,75.7,68.7,29.78,East,90,0.7,2.2,74,0.00,,,0.20,fowsr,2013-05-25 03:20:00,
2013-05-24 23:25:00,75.6,68.5,29.78,West,270,0.0,0.0,74,0.00,,,0.20,fowsr,2013-05-25 03:25:00,
2013-05-24 23:30:00,75.0,68.3,29.78,ENE,67,0.7,2.2,75,0.00,,,0.20,fowsr,2013-05-25 03:30:00,
2013-05-24 23:35:00,75.2,67.9,29.78,SE,135,0.7,1.6,73,0.00,,,0.20,fowsr,2013-05-25 03:35:00,
2013-05-24 23:40:00,75.0,68.0,29.78,East,90,0.0,0.7,74,0.00,,,0.20,fowsr,2013-05-25 03:40:00,
2013-05-24 23:45:00,75.0,68.0,29.78,West,270,0.0,0.7,74,0.00,,,0.20,fowsr,2013-05-25 03:45:00,
2013-05-24 23:50:00,74.8,68.1,29.79,East,90,0.0,0.0,75,0.00,,,0.20,fowsr,2013-05-25 03:50:00,
2013-05-24 23:55:00,74.5,67.8,29.79,East,90,0.0,0.0,75,0.00,,,0.20,fowsr,2013-05-25 03:55:00,